Time;durP1;ratioP1;P1;durP2;ratioP2;P2;SDS_P1;SDS_P2;PMS_P1;PMS_P2;Temp;Humidity;BMP_temperature;BMP_pressure;BME280_temperature;BME280_humidity;BME280_pressure;Samples;Min_cycle;Max_cycle;Signal;HPM_P1;HPM_P2
2023/03/20 00:01:33;;;;;;;9.83;8.13;;;8.70;94.40;;;;;;5074723;28;20665;-77
2023/03/20 00:03:59;;;;;;;10.40;8.27;;;8.70;94.40;;;;;;5052800;28;20199;-78
2023/03/20 00:06:31;;;;;;;11.63;8.17;;;8.80;94.40;;;;;;5074566;28;20174;-75
2023/03/20 00:08:57;;;;;;;10.50;8.83;;;8.90;94.40;;;;;;5074228;28;20164;-77
2023/03/20 00:11:40;;;;;;;12.40;8.20;;;8.90;94.30;;;;;;5078035;28;20178;-79
2023/03/20 00:14:09;;;;;;;11.10;8.43;;;8.90;94.40;;;;;;5075321;28;20209;-75
2023/03/20 00:16:40;;;;;;;10.70;8.27;;;9.00;94.40;;;;;;5077264;28;20659;-76
2023/03/20 00:19:12;;;;;;;10.73;8.43;;;9.10;94.20;;;;;;5073686;28;20199;-81
2023/03/20 00:21:38;;;;;;;9.97;8.77;;;9.00;94.20;;;;;;5077102;28;20199;-82
2023/03/20 00:24:04;;;;;;;10.90;9.03;;;9.00;94.20;;;;;;5075560;28;20178;-82
2023/03/20 00:26:35;;;;;;;11.03;8.47;;;9.00;94.10;;;;;;5074469;28;20254;-78
2023/03/20 00:29:03;;;;;;;10.33;8.73;;;8.90;94.20;;;;;;5056228;28;20179;-78
2023/03/20 00:31:31;;;;;;;9.70;8.70;;;8.90;94.40;;;;;;5073621;28;20171;-83
2023/03/20 00:33:59;;;;;;;9.90;8.40;;;8.90;94.30;;;;;;5078342;28;20206;-77
2023/03/20 00:36:26;;;;;;;10.27;8.63;;;8.90;94.30;;;;;;5074276;28;20178;-77
2023/03/20 00:38:52;;;;;;;10.23;9.03;;;8.80;94.20;;;;;;5074035;28;20171;-75
2023/03/20 00:41:30;;;;;;;10.83;8.57;;;8.80;94.40;;;;;;5074535;28;20174;-76
2023/03/20 00:44:04;;;;;;;10.73;8.10;;;8.80;94.40;;;;;;5080854;28;20577;-77
2023/03/20 00:46:37;;;;;;;9.73;8.00;;;8.70;94.40;;;;;;5092654;28;20163;-74
2023/03/20 00:49:02;;;;;;;9.80;8.13;;;8.70;94.50;;;;;;5079035;28;20639;-84
2023/03/20 00:51:29;;;;;;;10.17;8.43;;;8.70;94.40;;;;;;5078817;28;20174;-80
2023/03/20 00:53:55;;;;;;;9.50;8.10;;;8.70;94.40;;;;;;5076817;28;20297;-80
2023/03/20 00:56:39;;;;;;;10.80;8.20;;;8.70;94.60;;;;;;5077820;28;20175;-80
2023/03/20 00:59:06;;;;;;;10.50;8.30;;;8.80;94.60;;;;;;5078334;28;20167;-79
2023/03/20 01:01:32;;;;;;;10.10;8.17;;;8.80;94.60;;;;;;5058495;28;20270;-85
2023/03/20 01:03:59;;;;;;;11.57;8.70;;;8.80;94.70;;;;;;5073671;28;20258;-83
2023/03/20 01:06:24;;;;;;;10.10;8.17;;;8.80;94.60;;;;;;5073515;28;20175;-82
2023/03/20 01:08:50;;;;;;;9.20;8.20;;;8.70;94.70;;;;;;5073587;28;20174;-84
2023/03/20 01:11:21;;;;;;;13.57;8.43;;;8.70;94.70;;;;;;5073199;28;20175;-79
2023/03/20 01:13:47;;;;;;;11.13;8.20;;;8.60;94.80;;;;;;5072863;28;20201;-82
2023/03/20 01:16:20;;;;;;;10.10;8.47;;;8.60;94.80;;;;;;5073106;28;20696;-83
2023/03/20 01:18:46;;;;;;;9.67;8.20;;;8.50;95.00;;;;;;5073005;28;20250;-83
2023/03/20 01:21:12;;;;;;;11.17;8.20;;;8.60;95.00;;;;;;5072966;28;20296;-84
2023/03/20 01:23:38;;;;;;;10.23;8.57;;;8.60;95.00;;;;;;5073978;28;20208;-83
2023/03/20 01:26:17;;;;;;;9.07;8.17;;;8.60;95.00;;;;;;5072852;28;20178;-78
2023/03/20 01:28:43;;;;;;;8.93;8.00;;;8.50;95.00;;;;;;5072983;28;20213;-78
2023/03/20 01:31:09;;;;;;;10.13;8.37;;;8.50;95.00;;;;;;5054524;28;20273;-82
2023/03/20 01:33:35;;;;;;;9.73;8.27;;;8.60;95.10;;;;;;5072898;28;20622;-83
2023/03/20 01:36:02;;;;;;;13.47;9.03;;;8.50;95.10;;;;;;5076377;28;20167;-84
2023/03/20 01:38:27;;;;;;;11.23;8.63;;;8.50;95.20;;;;;;5057901;28;20361;-84
2023/03/20 01:41:15;;;;;;;8.83;7.83;;;8.40;95.20;;;;;;5082005;28;20637;-84
2023/03/20 01:43:43;;;;;;;10.40;8.13;;;8.50;95.20;;;;;;5076599;28;20250;-84
2023/03/20 01:46:25;;;;;;;10.40;8.30;;;8.50;95.10;;;;;;5073298;28;20265;-80
2023/03/20 01:48:51;;;;;;;9.57;8.17;;;8.50;95.10;;;;;;5072709;28;20162;-84
2023/03/20 01:51:22;;;;;;;11.30;7.93;;;8.40;95.10;;;;;;5072539;28;20169;-82
2023/03/20 01:53:53;;;;;;;9.00;8.07;;;8.50;95.00;;;;;;5075451;28;20207;-83
2023/03/20 01:56:20;;;;;;;9.10;8.20;;;8.30;95.00;;;;;;5076859;28;20173;-83
2023/03/20 01:58:52;;;;;;;9.40;8.03;;;8.20;95.20;;;;;;5075775;28;20170;-82
2023/03/20 02:01:18;;;;;;;10.57;8.67;;;8.10;95.20;;;;;;5072456;28;20253;-83
2023/03/20 02:03:48;;;;;;;8.87;7.97;;;8.10;95.20;;;;;;5073389;28;20210;-83
2023/03/20 02:06:14;;;;;;;9.67;8.17;;;8.10;95.30;;;;;;5081566;28;20171;-83
2023/03/20 02:08:47;;;;;;;10.57;8.37;;;8.10;95.40;;;;;;5075358;28;20182;-82
2023/03/20 02:11:15;;;;;;;14.03;8.93;;;8.10;95.20;;;;;;5072356;28;20217;-81
2023/03/20 02:13:43;;;;;;;11.23;8.50;;;8.20;95.10;;;;;;5055046;28;20209;-85
2023/03/20 02:16:14;;;;;;;8.63;7.73;;;8.20;95.20;;;;;;5072836;28;20204;-84
2023/03/20 02:18:43;;;;;;;10.17;8.53;;;8.20;95.20;;;;;;5075869;28;20591;-80
2023/03/20 02:21:46;;;;;;;11.73;8.20;;;8.30;95.00;;;;;;5082105;28;20179;-76
2023/03/20 02:24:43;;;;;;;9.97;8.40;;;8.40;95.10;;;;;;5081728;28;20174;-81
2023/03/20 02:27:32;;;;;;;9.37;8.37;;;8.40;95.20;;;;;;5073265;28;20202;-77
2023/03/20 02:30:13;;;;;;;9.10;8.13;;;8.50;95.20;;;;;;5063621;28;20258;-79
2023/03/20 02:33:16;;;;;;;9.10;8.07;;;8.50;95.10;;;;;;5056320;28;20174;-75
2023/03/20 02:36:03;;;;;;;11.40;8.60;;;8.40;95.10;;;;;;5072099;28;20201;-80
2023/03/20 02:38:55;;;;;;;11.70;8.27;;;8.40;95.10;;;;;;5055955;28;20167;-79
2023/03/20 02:41:24;;;;;;;10.97;8.20;;;8.40;95.20;;;;;;4955837;28;20190;-84
2023/03/20 02:44:03;;;;;;;9.90;8.27;;;8.30;95.20;;;;;;4972718;28;20198;-82
2023/03/20 02:47:12;;;;;;;10.47;8.57;;;8.30;95.20;;;;;;5010363;28;20193;-82
2023/03/20 02:50:09;;;;;;;11.07;9.10;;;8.40;95.30;;;;;;5010166;28;20266;-84
2023/03/20 02:52:53;;;;;;;12.73;8.47;;;8.30;95.30;;;;;;5010531;28;20184;-86
2023/03/20 02:55:40;;;;;;;10.60;8.70;;;8.30;95.40;;;;;;5014116;28;20180;-84
2023/03/20 02:58:20;;;;;;;12.33;10.37;;;8.30;95.30;;;;;;5015247;28;20181;-82
2023/03/20 03:00:54;;;;;;;13.90;10.40;;;8.40;95.50;;;;;;5015584;28;20177;-84
2023/03/20 03:03:30;;;;;;;14.00;10.93;;;8.30;95.50;;;;;;5018091;28;20169;-81
2023/03/20 03:06:11;;;;;;;15.13;10.43;;;8.30;95.40;;;;;;5000656;28;20721;-84
2023/03/20 03:08:43;;;;;;;12.23;10.30;;;8.40;95.30;;;;;;5014244;28;20173;-81
2023/03/20 03:11:09;;;;;;;10.73;9.50;;;8.20;95.50;;;;;;5013332;28;20181;-84
2023/03/20 03:13:39;;;;;;;12.47;9.97;;;8.30;95.40;;;;;;5013319;28;20691;-80
2023/03/20 03:16:11;;;;;;;11.87;9.63;;;8.20;95.50;;;;;;5013577;28;20243;-85
2023/03/20 03:18:39;;;;;;;14.00;10.03;;;8.20;95.50;;;;;;5070263;28;20189;-83
2023/03/20 03:21:06;;;;;;;11.60;10.40;;;8.10;95.70;;;;;;5100645;28;20169;-83
2023/03/20 03:23:48;;;;;;;11.13;9.97;;;8.10;95.80;;;;;;5117931;28;20163;-83
2023/03/20 03:26:26;;;;;;;13.57;10.33;;;8.20;95.60;;;;;;5102554;28;20164;-83
2023/03/20 03:29:00;;;;;;;13.63;10.50;;;8.40;95.40;;;;;;5101211;28;20184;-81
2023/03/20 03:31:28;;;;;;;13.27;10.17;;;8.40;95.50;;;;;;5098852;28;20158;-74
2023/03/20 03:33:57;;;;;;;17.13;11.93;;;8.30;95.60;;;;;;5095661;28;20219;-79
2023/03/20 03:36:41;;;;;;;15.13;10.73;;;8.40;95.60;;;;;;5095475;28;20579;-77
2023/03/20 03:39:29;;;;;;;16.20;12.10;;;8.40;95.80;;;;;;5098865;28;20220;-77
2023/03/20 03:42:00;;;;;;;16.97;11.77;;;8.40;95.70;;;;;;5096657;28;20158;-77
2023/03/20 03:44:47;;;;;;;13.57;11.20;;;8.40;95.70;;;;;;5089597;28;20293;-79
2023/03/20 03:47:42;;;;;;;16.20;11.77;;;8.30;95.70;;;;;;5074974;28;20187;-80
2023/03/20 03:50:20;;;;;;;16.57;11.83;;;8.30;95.80;;;;;;5074549;28;20171;-78
2023/03/20 03:52:48;;;;;;;12.90;11.40;;;8.40;95.80;;;;;;5075622;28;20262;-76
2023/03/20 03:55:20;;;;;;;17.13;11.30;;;8.30;95.80;;;;;;5085079;28;20216;-76
2023/03/20 03:57:52;;;;;;;14.00;11.13;;;8.30;95.90;;;;;;5073545;28;20167;-75
2023/03/20 04:00:22;;;;;;;16.10;11.57;;;8.30;95.90;;;;;;5083232;28;20163;-74
2023/03/20 04:02:52;;;;;;;16.33;11.43;;;8.30;95.90;;;;;;5074955;28;20662;-82
2023/03/20 04:05:20;;;;;;;15.73;11.43;;;8.30;96.00;;;;;;5076028;28;20779;-84
2023/03/20 04:07:47;;;;;;;14.77;11.07;;;8.30;96.00;;;;;;5078196;28;20180;-77
2023/03/20 04:10:14;;;;;;;16.27;11.60;;;8.30;96.00;;;;;;5077047;28;20223;-78
2023/03/20 04:12:41;;;;;;;13.03;11.20;;;8.30;96.00;;;;;;5075825;28;20270;-82
2023/03/20 04:15:08;;;;;;;16.70;13.23;;;8.30;95.90;;;;;;5074248;28;20218;-77
2023/03/20 04:17:33;;;;;;;14.80;11.33;;;8.30;95.90;;;;;;5073830;28;20175;-80
2023/03/20 04:19:59;;;;;;;12.53;11.17;;;8.30;96.10;;;;;;5075559;28;20190;-82
2023/03/20 04:22:25;;;;;;;13.83;10.70;;;8.30;95.90;;;;;;5074336;28;20219;-82
2023/03/20 04:24:51;;;;;;;15.13;11.17;;;8.30;95.80;;;;;;5074096;28;20174;-82
2023/03/20 04:27:17;;;;;;;13.83;10.67;;;8.30;96.00;;;;;;5073758;28;20179;-81
2023/03/20 04:29:44;;;;;;;14.03;9.70;;;8.40;95.90;;;;;;5073594;28;20174;-74
2023/03/20 04:32:10;;;;;;;13.70;10.20;;;8.50;95.70;;;;;;5055842;28;20273;-78
2023/03/20 04:34:36;;;;;;;13.83;9.00;;;8.40;95.70;;;;;;5073656;28;20211;-80
2023/03/20 04:37:04;;;;;;;9.67;8.67;;;8.30;95.80;;;;;;5073805;28;20206;-76
2023/03/20 04:39:30;;;;;;;13.40;9.10;;;8.30;95.80;;;;;;5072975;28;20248;-79
2023/03/20 04:41:56;;;;;;;10.47;8.33;;;8.30;95.90;;;;;;5073909;28;20175;-80
2023/03/20 04:44:21;;;;;;;10.23;8.33;;;8.30;95.90;;;;;;5073694;28;20555;-83
2023/03/20 04:46:47;;;;;;;9.83;8.63;;;8.20;95.90;;;;;;5073633;28;20175;-82
2023/03/20 04:49:13;;;;;;;9.50;8.07;;;8.20;96.10;;;;;;5072975;28;20171;-83
2023/03/20 04:51:39;;;;;;;10.80;8.27;;;8.30;96.00;;;;;;5073569;28;20171;-84
2023/03/20 04:54:05;;;;;;;11.97;9.03;;;8.30;96.00;;;;;;5073228;28;20218;-83
2023/03/20 04:56:30;;;;;;;10.53;8.60;;;8.30;96.10;;;;;;5073774;28;20172;-78
2023/03/20 04:58:56;;;;;;;11.83;8.47;;;8.40;96.00;;;;;;5075438;28;20170;-79
2023/03/20 05:01:22;;;;;;;10.97;8.80;;;8.30;96.10;;;;;;5078770;28;20631;-74
2023/03/20 05:03:48;;;;;;;10.07;8.37;;;8.40;96.10;;;;;;5080294;28;20171;-79
2023/03/20 05:06:14;;;;;;;10.10;8.73;;;8.40;96.00;;;;;;5091964;28;20171;-82
2023/03/20 05:08:39;;;;;;;11.73;8.90;;;8.50;96.00;;;;;;5090033;28;20231;-81
2023/03/20 05:11:07;;;;;;;11.87;9.37;;;8.50;95.90;;;;;;5072036;28;20186;-84
2023/03/20 05:13:32;;;;;;;9.80;8.57;;;8.50;96.00;;;;;;5079567;28;20295;-82
2023/03/20 05:15:58;;;;;;;10.97;8.87;;;8.50;95.90;;;;;;5077365;28;20171;-75
2023/03/20 05:18:24;;;;;;;12.77;9.43;;;8.50;96.00;;;;;;5073283;28;20214;-77
2023/03/20 05:20:50;;;;;;;9.43;8.43;;;8.50;96.00;;;;;;5074258;28;20221;-75
2023/03/20 05:23:15;;;;;;;12.93;9.10;;;8.50;96.00;;;;;;5055799;28;20274;-76
2023/03/20 05:25:41;;;;;;;10.73;9.30;;;8.60;96.00;;;;;;5054762;28;20619;-74
2023/03/20 05:28:07;;;;;;;12.17;9.33;;;8.60;96.00;;;;;;5054593;28;20183;-76
2023/03/20 05:30:33;;;;;;;12.17;9.67;;;8.60;96.00;;;;;;5073195;28;20617;-78
2023/03/20 05:32:59;;;;;;;14.50;10.33;;;8.60;96.00;;;;;;5064874;28;20175;-74
2023/03/20 05:35:24;;;;;;;15.67;9.87;;;8.60;96.10;;;;;;5092301;28;20207;-83
2023/03/20 05:37:50;;;;;;;15.13;10.70;;;8.50;96.00;;;;;;5057252;28;20175;-82
2023/03/20 05:40:18;;;;;;;15.17;11.10;;;8.50;96.10;;;;;;5073211;28;20180;-82
2023/03/20 05:42:44;;;;;;;19.23;11.20;;;8.60;96.10;;;;;;5055631;28;20182;-84
2023/03/20 05:45:10;;;;;;;13.77;10.93;;;8.60;95.90;;;;;;5076275;28;20695;-83
2023/03/20 05:47:36;;;;;;;16.90;10.67;;;8.70;96.00;;;;;;5096933;28;20183;-81
2023/03/20 05:50:02;;;;;;;16.27;10.93;;;8.60;96.00;;;;;;5101324;28;20263;-82
2023/03/20 05:52:28;;;;;;;17.23;11.13;;;8.60;96.10;;;;;;5097792;28;20236;-84
2023/03/20 05:54:54;;;;;;;19.70;11.00;;;8.60;96.10;;;;;;5095824;28;20561;-84
2023/03/20 05:57:20;;;;;;;14.70;10.50;;;8.70;96.00;;;;;;5094253;28;20249;-84
2023/03/20 05:59:46;;;;;;;17.33;10.93;;;8.70;96.30;;;;;;5093839;28;20187;-82
2023/03/20 06:02:12;;;;;;;13.47;10.13;;;8.80;96.00;;;;;;5092968;28;20166;-84
2023/03/20 06:04:38;;;;;;;14.63;10.17;;;8.90;95.80;;;;;;5093956;28;20185;-80
2023/03/20 06:07:05;;;;;;;13.23;9.50;;;9.00;95.80;;;;;;5093145;28;20242;-84
2023/03/20 06:09:31;;;;;;;15.97;9.50;;;9.00;95.90;;;;;;5092818;28;20159;-83
2023/03/20 06:11:58;;;;;;;12.30;9.30;;;9.10;95.70;;;;;;5092936;28;20178;-77
2023/03/20 06:14:23;;;;;;;13.00;10.63;;;9.10;95.70;;;;;;5091680;28;20210;-81
2023/03/20 06:16:49;;;;;;;14.70;10.40;;;9.20;95.70;;;;;;5092615;28;20182;-81
2023/03/20 06:19:15;;;;;;;12.03;9.33;;;9.30;95.70;;;;;;5091918;28;20171;-79
2023/03/20 06:21:41;;;;;;;12.33;8.97;;;9.30;95.70;;;;;;5091138;28;20179;-80
2023/03/20 06:24:07;;;;;;;11.00;9.60;;;9.30;95.70;;;;;;5091301;28;20175;-78
2023/03/20 06:26:34;;;;;;;9.73;8.73;;;9.30;95.70;;;;;;5091726;28;20552;-75
2023/03/20 06:29:00;;;;;;;11.80;9.47;;;9.30;95.60;;;;;;5093360;28;20546;-79
2023/03/20 06:31:26;;;;;;;10.80;8.80;;;9.40;95.50;;;;;;5101628;28;20185;-77
2023/03/20 06:33:52;;;;;;;10.87;8.93;;;9.40;95.50;;;;;;5116802;28;20211;-77
2023/03/20 06:36:17;;;;;;;11.13;8.87;;;9.40;95.60;;;;;;5117544;28;20169;-84
2023/03/20 06:38:43;;;;;;;14.73;10.00;;;9.50;95.50;;;;;;5116040;28;20642;-83
2023/03/20 06:41:09;;;;;;;11.90;9.40;;;9.50;95.50;;;;;;5115966;28;20174;-82
2023/03/20 06:43:36;;;;;;;13.77;9.87;;;9.60;95.50;;;;;;5127254;28;20238;-75
2023/03/20 06:46:02;;;;;;;16.50;9.37;;;9.70;95.40;;;;;;5118909;28;20581;-82
2023/03/20 06:48:28;;;;;;;13.40;9.70;;;9.80;95.40;;;;;;5117458;28;20195;-82
2023/03/20 06:50:53;;;;;;;11.97;9.93;;;9.90;95.40;;;;;;5118045;28;20190;-82
2023/03/20 06:53:19;;;;;;;10.67;9.10;;;10.00;94.80;;;;;;5127045;28;20206;-83
2023/03/20 06:55:49;;;;;;;14.43;10.03;;;10.10;94.70;;;;;;5102162;28;20562;-78
2023/03/20 06:58:15;;;;;;;15.43;10.60;;;10.20;94.60;;;;;;5116764;28;20196;-83
2023/03/20 07:00:41;;;;;;;16.03;10.17;;;10.30;94.40;;;;;;5116801;28;20189;-80
2023/03/20 07:03:08;;;;;;;11.97;9.87;;;10.40;94.50;;;;;;5117640;28;20278;-75
2023/03/20 07:05:34;;;;;;;16.33;9.83;;;10.50;94.70;;;;;;5117985;28;20239;-79
2023/03/20 07:08:00;;;;;;;10.90;9.67;;;10.60;94.40;;;;;;5117266;28;20250;-76
2023/03/20 07:10:27;;;;;;;10.83;8.90;;;10.70;94.30;;;;;;5126798;28;20202;-76
2023/03/20 07:12:53;;;;;;;11.53;9.40;;;10.80;94.40;;;;;;5136939;28;20171;-76
2023/03/20 07:15:20;;;;;;;13.20;9.57;;;10.90;94.20;;;;;;5131010;28;20421;-80
2023/03/20 07:17:46;;;;;;;11.87;8.90;;;10.90;94.20;;;;;;5123547;28;20173;-83
2023/03/20 07:20:13;;;;;;;13.47;9.50;;;11.00;94.20;;;;;;5119338;28;20180;-83
2023/03/20 07:22:40;;;;;;;10.87;9.43;;;11.00;94.20;;;;;;5115726;28;20208;-84
2023/03/20 07:25:08;;;;;;;12.53;9.20;;;11.10;94.30;;;;;;5117239;28;20183;-75
2023/03/20 07:27:34;;;;;;;13.00;9.53;;;11.10;94.30;;;;;;5125970;28;20192;-82
2023/03/20 07:30:01;;;;;;;11.60;9.73;;;11.10;94.30;;;;;;5120487;28;20189;-84
2023/03/20 07:32:27;;;;;;;11.83;9.90;;;11.30;94.30;;;;;;5117304;28;20170;-82
2023/03/20 07:34:53;;;;;;;15.67;10.10;;;11.30;94.00;;;;;;5114598;28;20290;-84
2023/03/20 07:37:19;;;;;;;13.77;10.20;;;11.40;93.90;;;;;;5116601;28;20254;-85
2023/03/20 07:39:45;;;;;;;14.73;9.43;;;11.50;93.70;;;;;;5116366;28;20245;-83
2023/03/20 07:42:12;;;;;;;14.03;9.60;;;11.60;93.50;;;;;;5117089;28;20242;-83
2023/03/20 07:44:38;;;;;;;15.53;11.13;;;11.70;93.50;;;;;;5112069;28;20234;-83
2023/03/20 07:47:05;;;;;;;11.97;10.27;;;11.70;93.50;;;;;;5097027;28;20649;-82
2023/03/20 07:49:32;;;;;;;13.30;9.87;;;11.80;94.40;;;;;;5095574;28;20702;-81
2023/03/20 07:51:58;;;;;;;15.90;10.50;;;11.80;94.40;;;;;;5096953;28;20251;-78
2023/03/20 07:54:24;;;;;;;16.73;10.07;;;11.90;94.00;;;;;;5097533;28;20229;-78
2023/03/20 07:56:49;;;;;;;18.37;11.17;;;12.00;94.60;;;;;;5096639;28;20175;-82
2023/03/20 07:59:16;;;;;;;19.40;11.20;;;12.00;94.00;;;;;;5095541;28;20219;-84
2023/03/20 08:01:42;;;;;;;19.00;10.77;;;12.00;94.60;;;;;;5095463;28;20162;-83
2023/03/20 08:04:08;;;;;;;14.07;10.10;;;12.10;94.00;;;;;;5079955;28;20672;-85
2023/03/20 08:06:34;;;;;;;11.80;10.00;;;12.20;94.00;;;;;;5105527;28;20638;-82
2023/03/20 08:09:00;;;;;;;12.80;9.33;;;12.40;94.00;;;;;;5080337;28;20186;-82
2023/03/20 08:11:26;;;;;;;11.93;9.07;;;12.60;93.70;;;;;;5076773;28;20180;-79
2023/03/20 08:13:52;;;;;;;14.03;9.27;;;12.80;93.20;;;;;;5094929;28;20273;-79
2023/03/20 08:16:19;;;;;;;10.10;8.70;;;12.90;93.00;;;;;;5100614;28;20169;-79
2023/03/20 08:18:44;;;;;;;12.03;8.77;;;13.00;92.80;;;;;;5097020;28;20171;-76
2023/03/20 08:21:10;;;;;;;11.53;9.13;;;13.00;93.20;;;;;;5097709;28;20652;-77
2023/03/20 08:23:36;;;;;;;14.53;9.63;;;13.10;93.20;;;;;;5096584;28;20529;-76
2023/03/20 08:26:02;;;;;;;11.37;9.43;;;13.30;93.10;;;;;;5095056;28;20249;-75
2023/03/20 08:28:28;;;;;;;10.40;7.90;;;13.40;92.80;;;;;;5094625;28;20744;-78
2023/03/20 08:30:54;;;;;;;13.07;9.23;;;13.50;92.70;;;;;;5094713;28;20209;-79
2023/03/20 08:33:20;;;;;;;8.83;7.90;;;13.60;92.40;;;;;;5076553;28;20189;-79
2023/03/20 08:35:59;;;;;;;9.47;6.63;;;13.70;92.40;;;;;;5098835;28;20182;-75
2023/03/20 08:38:24;;;;;;;7.60;6.77;;;13.60;92.20;;;;;;5098318;28;20273;-76
2023/03/20 08:40:51;;;;;;;9.43;7.20;;;13.60;92.40;;;;;;5095135;28;20171;-76
2023/03/20 08:43:17;;;;;;;11.00;7.53;;;13.60;92.40;;;;;;5096046;28;20242;-76
2023/03/20 08:45:43;;;;;;;9.63;7.53;;;13.70;92.50;;;;;;5121691;28;20232;-79
2023/03/20 08:48:09;;;;;;;7.73;6.80;;;13.70;92.50;;;;;;5131000;28;20212;-75
2023/03/20 08:50:36;;;;;;;11.03;8.37;;;13.90;92.40;;;;;;5117391;28;20196;-76
2023/03/20 08:53:02;;;;;;;10.23;7.97;;;14.20;92.10;;;;;;5114569;28;20174;-77
2023/03/20 08:55:28;;;;;;;11.20;7.70;;;14.40;92.10;;;;;;5114196;28;20208;-77
2023/03/20 08:57:56;;;;;;;14.13;9.20;;;14.60;92.00;;;;;;5114383;27;20675;-80
2023/03/20 09:00:22;;;;;;;14.43;8.27;;;14.80;91.60;;;;;;5114899;28;20254;-84
2023/03/20 09:02:49;;;;;;;10.33;8.43;;;14.90;91.20;;;;;;5115443;28;20177;-84
2023/03/20 09:05:15;;;;;;;10.00;8.37;;;15.00;91.20;;;;;;5124541;28;20202;-85
2023/03/20 09:07:42;;;;;;;10.43;8.17;;;15.10;91.30;;;;;;5125373;28;20536;-85
2023/03/20 09:10:09;;;;;;;10.60;8.07;;;15.10;91.40;;;;;;5120537;27;20177;-85
2023/03/20 09:12:35;;;;;;;8.43;7.57;;;15.40;90.90;;;;;;5115112;28;20641;-83
2023/03/20 09:15:03;;;;;;;10.33;8.13;;;15.50;90.50;;;;;;5116443;28;20316;-83
2023/03/20 09:17:30;;;;;;;9.57;8.63;;;15.50;90.60;;;;;;5118439;28;20227;-84
2023/03/20 09:19:56;;;;;;;12.73;9.67;;;15.50;90.60;;;;;;5123820;28;20186;-84
2023/03/20 09:22:22;;;;;;;12.60;10.00;;;15.60;90.60;;;;;;5119407;28;20169;-84
2023/03/20 09:24:48;;;;;;;14.90;10.00;;;15.60;90.60;;;;;;5117660;28;20186;-81
2023/03/20 09:27:14;;;;;;;15.13;10.13;;;15.60;90.70;;;;;;5115557;28;20247;-84
2023/03/20 09:29:41;;;;;;;16.13;10.20;;;15.60;90.60;;;;;;5114665;28;20179;-86
2023/03/20 09:32:10;;;;;;;15.27;9.90;;;15.70;90.50;;;;;;5115071;28;20176;-85
2023/03/20 09:34:36;;;;;;;13.90;9.70;;;15.80;90.50;;;;;;5114526;28;20211;-83
2023/03/20 09:37:02;;;;;;;13.10;10.40;;;15.90;90.30;;;;;;5117715;28;20172;-82
2023/03/20 09:39:28;;;;;;;12.70;9.70;;;16.00;90.40;;;;;;5116807;28;20182;-83
2023/03/20 09:41:54;;;;;;;11.60;9.53;;;16.10;90.20;;;;;;5115109;28;20173;-88
2023/03/20 09:44:40;;;;;;;12.07;8.87;;;16.20;90.10;;;;;;5109821;28;20299;-82
2023/03/20 09:47:21;;;;;;;13.63;9.73;;;16.50;90.10;;;;;;5096961;28;20241;-83
2023/03/20 09:50:10;;;;;;;13.30;8.93;;;16.70;89.40;;;;;;5100455;28;20172;-84
2023/03/20 09:53:07;;;;;;;9.40;8.50;;;16.90;88.50;;;;;;5076186;28;20159;-84
2023/03/20 09:55:36;;;;;;;12.50;8.97;;;16.90;88.10;;;;;;5087157;28;20205;-83
2023/03/20 09:58:17;;;;;;;13.63;8.97;;;16.90;87.60;;;;;;5076183;28;20253;-85
2023/03/20 10:00:45;;;;;;;10.50;8.87;;;16.80;87.30;;;;;;5094723;28;20170;-84
2023/03/20 10:03:41;;;;;;;11.93;9.20;;;16.80;87.90;;;;;;5078124;28;20174;-87
2023/03/20 10:06:13;;;;;;;11.43;8.87;;;16.90;88.20;;;;;;5098874;28;20173;-85
2023/03/20 10:08:41;;;;;;;12.67;7.90;;;16.90;87.90;;;;;;5099646;28;20168;-85
2023/03/20 10:11:16;;;;;;;8.93;7.93;;;16.80;88.60;;;;;;5080577;28;20177;-75
2023/03/20 10:13:58;;;;;;;8.30;7.60;;;16.90;89.40;;;;;;5099666;28;20193;-77
2023/03/20 10:16:26;;;;;;;13.53;7.60;;;17.00;88.30;;;;;;5103095;28;20195;-76
2023/03/20 10:19:04;;;;;;;8.93;7.27;;;17.00;88.10;;;;;;5083943;28;20178;-80
2023/03/20 10:21:44;;;;;;;7.50;6.43;;;17.00;87.50;;;;;;5111399;28;20182;-76
2023/03/20 10:24:35;;;;;;;6.90;6.20;;;16.90;87.10;;;;;;5110187;28;20166;-77
2023/03/20 10:27:09;;;;;;;6.73;5.90;;;16.90;87.30;;;;;;5079647;28;20197;-75
2023/03/20 10:29:49;;;;;;;6.20;5.67;;;16.90;87.10;;;;;;5096677;28;20164;-77
2023/03/20 10:32:20;;;;;;;5.93;5.33;;;16.90;87.00;;;;;;5097228;28;20257;-80
2023/03/20 10:35:15;;;;;;;6.43;5.80;;;17.00;86.90;;;;;;5096819;28;20610;-75
2023/03/20 10:37:50;;;;;;;6.23;5.73;;;17.00;87.00;;;;;;5096184;28;20193;-75
2023/03/20 10:40:35;;;;;;;6.23;5.63;;;17.20;87.30;;;;;;5096885;28;20174;-83
2023/03/20 10:43:10;;;;;;;7.37;5.10;;;17.40;87.20;;;;;;5102535;28;20193;-79
2023/03/20 10:45:50;;;;;;;5.33;4.73;;;17.50;86.20;;;;;;5106123;28;20731;-85
2023/03/20 10:48:25;;;;;;;6.03;3.63;;;17.60;86.20;;;;;;5097268;28;20244;-85
2023/03/20 10:50:54;;;;;;;4.40;4.00;;;17.60;84.90;;;;;;5078801;28;20537;-86
2023/03/20 10:53:30;;;;;;;5.47;5.07;;;17.50;84.50;;;;;;5080183;28;20209;-84
2023/03/20 10:56:01;;;;;;;5.17;3.30;;;17.50;84.80;;;;;;5103868;28;20165;-84
2023/03/20 10:58:30;;;;;;;2.40;2.20;;;17.50;84.50;;;;;;5099398;28;20260;-84
2023/03/20 11:00:59;;;;;;;2.40;2.30;;;17.20;83.50;;;;;;5080681;28;20264;-84
2023/03/20 11:03:28;;;;;;;2.53;2.30;;;17.10;84.20;;;;;;5079353;28;20173;-86
2023/03/20 11:06:01;;;;;;;2.40;2.20;;;17.00;84.30;;;;;;5097108;28;20211;-77
2023/03/20 11:08:34;;;;;;;2.50;2.40;;;17.10;84.20;;;;;;5098910;28;20169;-81
2023/03/20 11:11:03;;;;;;;2.30;2.20;;;17.20;84.00;;;;;;5106902;28;20340;-83
2023/03/20 11:13:30;;;;;;;2.20;2.10;;;17.20;84.30;;;;;;5098601;28;20212;-80
2023/03/20 11:16:06;;;;;;;2.27;2.17;;;17.30;84.40;;;;;;5096418;28;20177;-78
2023/03/20 11:18:33;;;;;;;2.03;1.93;;;17.40;84.00;;;;;;5099452;28;20545;-82
2023/03/20 11:21:01;;;;;;;2.37;2.20;;;17.30;82.60;;;;;;5101128;28;20186;-83
2023/03/20 11:23:32;;;;;;;1.67;1.67;;;17.20;82.80;;;;;;5083300;28;20270;-80
2023/03/20 11:26:01;;;;;;;2.03;1.93;;;17.10;83.30;;;;;;5114642;28;20162;-79
2023/03/20 11:28:45;;;;;;;2.77;2.43;;;17.10;83.30;;;;;;5101839;28;20578;-75
2023/03/20 11:31:18;;;;;;;1.50;1.50;;;17.00;83.00;;;;;;5078828;28;20169;-74
2023/03/20 11:34:02;;;;;;;1.87;1.77;;;17.20;82.70;;;;;;5095237;28;20689;-75
2023/03/20 11:36:30;;;;;;;2.20;1.80;;;17.00;82.70;;;;;;5077156;28;20171;-80
2023/03/20 11:39:22;;;;;;;1.87;1.70;;;16.90;82.70;;;;;;5095148;28;20314;-75
2023/03/20 11:41:53;;;;;;;1.90;1.80;;;16.90;82.80;;;;;;5095609;28;20166;-76
2023/03/20 11:44:30;;;;;;;2.50;1.70;;;16.90;82.70;;;;;;5095266;28;20309;-77
2023/03/20 11:46:56;;;;;;;1.53;1.40;;;16.90;82.50;;;;;;5076892;28;20171;-79
2023/03/20 11:49:24;;;;;;;2.00;1.90;;;17.10;83.00;;;;;;5076745;28;20209;-78
2023/03/20 11:51:52;;;;;;;1.70;1.70;;;17.30;82.60;;;;;;5077067;28;20580;-78
2023/03/20 11:54:21;;;;;;;1.70;1.70;;;17.30;81.30;;;;;;5077778;28;20217;-75
2023/03/20 11:56:55;;;;;;;2.03;1.93;;;17.30;81.70;;;;;;5118896;28;20155;-77
2023/03/20 11:59:24;;;;;;;1.87;1.77;;;17.40;81.90;;;;;;5099268;28;20172;-81
2023/03/20 12:01:53;;;;;;;2.00;1.90;;;17.40;81.20;;;;;;5101702;28;20223;-79
2023/03/20 12:04:36;;;;;;;2.10;2.00;;;17.20;81.20;;;;;;5093459;28;20612;-75
2023/03/20 12:07:25;;;;;;;2.20;2.10;;;17.20;82.20;;;;;;5097483;28;20238;-84
2023/03/20 12:10:06;;;;;;;2.70;2.50;;;17.20;82.90;;;;;;5095623;28;20245;-75
2023/03/20 12:12:47;;;;;;;3.07;2.50;;;17.30;83.40;;;;;;5094860;28;20155;-76
2023/03/20 12:15:33;;;;;;;2.70;2.60;;;17.40;83.80;;;;;;5076217;28;20258;-75
2023/03/20 12:18:25;;;;;;;3.80;3.50;;;17.50;83.50;;;;;;5075939;28;20181;-75
2023/03/20 12:21:12;;;;;;;3.27;3.00;;;17.50;84.20;;;;;;5076717;28;20534;-76
2023/03/20 12:23:42;;;;;;;3.30;3.10;;;17.60;84.10;;;;;;5081859;28;20181;-78
2023/03/20 12:26:14;;;;;;;4.17;3.80;;;17.70;84.30;;;;;;5096557;28;20212;-79
2023/03/20 12:28:51;;;;;;;3.93;3.60;;;17.70;84.70;;;;;;5078009;28;20186;-76
2023/03/20 12:31:34;;;;;;;4.40;4.00;;;17.70;85.20;;;;;;5076409;28;20252;-78
2023/03/20 12:34:04;;;;;;;3.93;3.63;;;17.80;85.30;;;;;;5076997;28;20209;-76
2023/03/20 12:36:35;;;;;;;4.30;3.90;;;17.80;85.40;;;;;;5076251;28;20171;-74
2023/03/20 12:39:04;;;;;;;3.70;3.50;;;17.90;85.40;;;;;;5076151;28;20175;-79
2023/03/20 12:41:59;;;;;;;4.10;3.67;;;17.90;84.40;;;;;;5081175;28;20212;-83
2023/03/20 12:44:40;;;;;;;3.73;3.43;;;18.00;84.10;;;;;;5084098;28;20217;-77
2023/03/20 12:47:24;;;;;;;4.00;3.40;;;18.10;84.00;;;;;;5113465;28;20648;-80
2023/03/20 12:50:15;;;;;;;3.30;3.10;;;18.10;83.90;;;;;;5116149;28;20197;-81
2023/03/20 12:53:01;;;;;;;3.00;2.80;;;18.00;83.20;;;;;;5121094;28;20162;-80
2023/03/20 12:55:50;;;;;;;4.20;2.70;;;18.10;83.40;;;;;;5106666;28;20688;-82
2023/03/20 12:58:31;;;;;;;3.03;2.80;;;18.20;82.90;;;;;;5114160;28;20162;-84
2023/03/20 13:01:07;;;;;;;3.40;3.10;;;18.30;82.20;;;;;;5115119;28;20295;-84
2023/03/20 13:04:11;;;;;;;3.30;3.10;;;18.20;83.00;;;;;;5115298;28;20230;-82